Time,TemperatureF,DewpointF,PressureIn,WindDirection,WindDirectionDegrees,WindSpeedMPH,WindSpeedGustMPH,Humidity,HourlyPrecipIn,Conditions,Clouds,dailyrainin,SoftwareType,DateUTC
2013-02-06 00:13:00,33.0,32.0,29.82,NW,323,5.0,-999.0,94,-99.99,,,0.00,weatherlink.com 1.10,2013-02-06 05:13:00,
2013-02-06 00:28:00,32.8,31.0,29.82,NW,323,0.0,-999.0,94,-99.99,,,0.00,weatherlink.com 1.10,2013-02-06 05:28:00,
2013-02-06 00:43:00,32.9,32.0,29.82,NW,323,2.0,-999.0,95,-99.99,,,0.00,weatherlink.com 1.10,2013-02-06 05:43:00,
2013-02-06 00:58:00,32.8,31.0,29.82,NW,323,2.0,-999.0,94,-99.99,,,0.00,weatherlink.com 1.10,2013-02-06 05:58:00,
2013-02-06 01:13:00,32.7,31.0,29.82,NW,323,2.0,-999.0,94,-99.99,,,0.00,weatherlink.com 1.10,2013-02-06 06:13:00,
2013-02-06 01:28:00,32.8,31.0,29.83,NW,322,1.0,-999.0,94,-99.99,,,0.00,weatherlink.com 1.10,2013-02-06 06:28:00,
2013-02-06 01:43:00,32.7,31.0,29.83,NW,322,2.0,-999.0,94,-99.99,,,0.00,weatherlink.com 1.10,2013-02-06 06:43:00,
2013-02-06 01:58:00,32.8,31.0,29.83,NW,313,4.0,-999.0,94,-99.99,,,0.00,weatherlink.com 1.10,2013-02-06 06:58:00,
2013-02-06 02:13:00,32.7,31.0,29.84,WNW,296,4.0,-999.0,94,-99.99,,,0.00,weatherlink.com 1.10,2013-02-06 07:13:00,
2013-02-06 02:28:00,32.7,32.0,29.84,WNW,294,1.0,-999.0,95,-99.99,,,0.00,weatherlink.com 1.10,2013-02-06 07:28:00,
2013-02-06 02:43:00,32.5,31.0,29.84,West,267,1.0,-999.0,95,-99.99,,,0.00,weatherlink.com 1.10,2013-02-06 07:43:00,
2013-02-06 02:58:00,32.3,31.0,29.83,West,267,1.0,-999.0,95,-99.99,,,0.00,weatherlink.com 1.10,2013-02-06 07:58:00,
2013-02-06 03:13:00,32.2,31.0,29.84,West,267,3.0,-999.0,95,-99.99,,,0.00,weatherlink.com 1.10,2013-02-06 08:13:00,
2013-02-06 03:28:00,32.1,31.0,29.84,West,267,2.0,-999.0,95,-99.99,,,0.00,weatherlink.com 1.10,2013-02-06 08:28:00,
2013-02-06 03:43:00,32.1,31.0,29.85,West,267,3.0,-999.0,95,-99.99,,,0.00,weatherlink.com 1.10,2013-02-06 08:43:00,
2013-02-06 03:58:00,32.2,31.0,29.84,West,267,2.0,-999.0,95,-99.99,,,0.00,weatherlink.com 1.10,2013-02-06 08:58:00,
2013-02-06 04:13:00,32.3,31.0,29.85,West,267,0.0,-999.0,95,-99.99,,,0.00,weatherlink.com 1.10,2013-02-06 09:13:00,
2013-02-06 04:28:00,32.3,31.0,29.86,WSW,257,4.0,-999.0,95,-99.99,,,0.00,weatherlink.com 1.10,2013-02-06 09:28:00,
2013-02-06 04:43:00,32.3,31.0,29.87,West,264,3.0,-999.0,95,-99.99,,,0.00,weatherlink.com 1.10,2013-02-06 09:43:00,
2013-02-06 04:58:00,32.1,31.0,29.87,WNW,282,0.0,-999.0,95,-99.99,,,0.00,weatherlink.com 1.10,2013-02-06 09:58:00,
2013-02-06 05:13:00,31.7,31.0,29.88,WNW,282,4.0,-999.0,95,-99.99,,,0.00,weatherlink.com 1.10,2013-02-06 10:13:00,
2013-02-06 05:28:00,31.3,30.0,29.89,WNW,282,0.0,-999.0,95,-99.99,,,0.00,weatherlink.com 1.10,2013-02-06 10:28:00,
2013-02-06 05:44:00,30.8,30.0,29.89,WNW,282,2.0,-999.0,95,-99.99,,,0.00,weatherlink.com 1.10,2013-02-06 10:44:00,
2013-02-06 05:58:00,30.5,29.0,29.89,WNW,282,0.0,-999.0,95,-99.99,,,0.00,weatherlink.com 1.10,2013-02-06 10:58:00,
2013-02-06 06:13:00,30.2,29.0,29.91,West,281,0.0,-999.0,95,-99.99,,,0.00,weatherlink.com 1.10,2013-02-06 11:13:00,
2013-02-06 06:28:00,30.1,29.0,29.93,WSW,248,2.0,-999.0,95,-99.99,,,0.00,weatherlink.com 1.10,2013-02-06 11:28:00,
2013-02-06 06:43:00,29.9,29.0,29.93,West,259,1.0,-999.0,95,-99.99,,,0.00,weatherlink.com 1.10,2013-02-06 11:43:00,
2013-02-06 06:58:00,29.8,29.0,29.93,WSW,246,0.0,-999.0,95,-99.99,,,0.00,weatherlink.com 1.10,2013-02-06 11:58:00,
2013-02-06 07:13:00,29.8,29.0,29.95,WSW,246,3.0,-999.0,96,-99.99,,,0.00,weatherlink.com 1.10,2013-02-06 12:13:00,
2013-02-06 07:28:00,30.0,29.0,29.95,WSW,244,0.0,-999.0,96,-99.99,,,0.00,weatherlink.com 1.10,2013-02-06 12:28:00,
2013-02-06 07:43:00,30.3,29.0,29.96,WSW,243,1.0,-999.0,96,-99.99,,,0.00,weatherlink.com 1.10,2013-02-06 12:43:00,
2013-02-06 07:58:00,30.5,30.0,29.97,WSW,238,3.0,-999.0,96,-99.99,,,0.00,weatherlink.com 1.10,2013-02-06 12:58:00,
2013-02-06 08:13:00,30.8,30.0,29.98,West,277,4.0,-999.0,96,-99.99,,,0.00,weatherlink.com 1.10,2013-02-06 13:13:00,
2013-02-06 08:28:00,31.3,30.0,29.99,WSW,244,5.0,-999.0,95,-99.99,,,0.00,weatherlink.com 1.10,2013-02-06 13:28:00,
2013-02-06 08:44:00,32.2,30.0,29.99,West,275,8.0,-999.0,93,-99.99,,,0.00,weatherlink.com 1.10,2013-02-06 13:44:00,
2013-02-06 08:58:00,32.9,30.0,29.99,West,265,8.0,-999.0,88,-99.99,,,0.00,weatherlink.com 1.10,2013-02-06 13:58:00,
2013-02-06 09:14:00,33.4,29.0,29.99,West,260,11.0,-999.0,84,-99.99,,,0.00,weatherlink.com 1.10,2013-02-06 14:14:00,
2013-02-06 09:29:00,34.1,29.0,30.00,WNW,288,6.0,-999.0,81,-99.99,,,0.00,weatherlink.com 1.10,2013-02-06 14:29:00,
2013-02-06 09:44:00,34.6,28.0,30.01,WNW,297,8.0,-999.0,76,-99.99,,,0.00,weatherlink.com 1.10,2013-02-06 14:44:00,
2013-02-06 09:58:00,35.0,28.0,30.02,WNW,287,9.0,-999.0,74,-99.99,,,0.00,weatherlink.com 1.10,2013-02-06 14:58:00,
2013-02-06 10:14:00,35.5,27.0,30.02,WSW,249,10.0,-999.0,72,-99.99,,,0.00,weatherlink.com 1.10,2013-02-06 15:14:00,
2013-02-06 10:29:00,35.9,27.0,30.02,West,259,7.0,-999.0,70,-99.99,,,0.00,weatherlink.com 1.10,2013-02-06 15:29:00,
2013-02-06 10:44:00,36.4,27.0,30.03,WSW,255,13.0,-999.0,69,-99.99,,,0.00,weatherlink.com 1.10,2013-02-06 15:44:00,
2013-02-06 10:59:00,37.2,27.0,30.03,West,261,8.0,-999.0,68,-99.99,,,0.00,weatherlink.com 1.10,2013-02-06 15:59:00,
2013-02-06 11:14:00,37.7,26.0,30.03,WSW,257,14.0,-999.0,62,-99.99,,,0.00,weatherlink.com 1.10,2013-02-06 16:14:00,
2013-02-06 11:29:00,38.3,25.0,30.02,West,262,12.0,-999.0,60,-99.99,,,0.00,weatherlink.com 1.10,2013-02-06 16:29:00,
2013-02-06 11:44:00,38.6,26.0,30.02,West,273,15.0,-999.0,62,-99.99,,,0.00,weatherlink.com 1.10,2013-02-06 16:44:00,
2013-02-06 11:59:00,38.7,26.0,30.02,West,276,19.0,-999.0,60,-99.99,,,0.00,weatherlink.com 1.10,2013-02-06 16:59:00,
2013-02-06 12:14:00,39.3,24.0,30.02,SW,231,12.0,-999.0,55,-99.99,,,0.00,weatherlink.com 1.10,2013-02-06 17:14:00,
2013-02-06 12:29:00,39.3,24.0,30.02,WNW,288,15.0,-999.0,54,-99.99,,,0.00,weatherlink.com 1.10,2013-02-06 17:29:00,
2013-02-06 12:44:00,39.0,22.0,30.02,NW,315,12.0,-999.0,51,-99.99,,,0.00,weatherlink.com 1.10,2013-02-06 17:44:00,
2013-02-06 12:59:00,39.0,23.0,30.02,WSW,252,7.0,-999.0,54,-99.99,,,0.00,weatherlink.com 1.10,2013-02-06 17:59:00,
2013-02-06 13:14:00,38.8,24.0,30.02,WNW,298,7.0,-999.0,55,-99.99,,,0.00,weatherlink.com 1.10,2013-02-06 18:14:00,
2013-02-06 13:29:00,39.7,24.0,30.02,West,269,8.0,-999.0,53,-99.99,,,0.00,weatherlink.com 1.10,2013-02-06 18:29:00,
2013-02-06 13:44:00,40.1,24.0,30.02,West,265,19.0,-999.0,52,-99.99,,,0.00,weatherlink.com 1.10,2013-02-06 18:44:00,
2013-02-06 13:59:00,39.9,24.0,30.02,SW,225,13.0,-999.0,53,-99.99,,,0.00,weatherlink.com 1.10,2013-02-06 18:59:00,
2013-02-06 14:14:00,39.2,24.0,30.04,WNW,286,19.0,-999.0,55,-99.99,,,0.00,weatherlink.com 1.10,2013-02-06 19:14:00,
2013-02-06 14:29:00,38.6,24.0,30.04,NW,311,12.0,-999.0,55,-99.99,,,0.00,weatherlink.com 1.10,2013-02-06 19:29:00,
2013-02-06 14:44:00,38.5,24.0,30.04,WNW,298,2.0,-999.0,57,-99.99,,,0.00,weatherlink.com 1.10,2013-02-06 19:44:00,
2013-02-06 14:59:00,38.5,25.0,30.05,WSW,254,12.0,-999.0,59,-99.99,,,0.00,weatherlink.com 1.10,2013-02-06 19:59:00,
2013-02-06 15:14:00,38.5,25.0,30.05,West,267,5.0,-999.0,58,-99.99,,,0.00,weatherlink.com 1.10,2013-02-06 20:14:00,
2013-02-06 15:29:00,38.3,24.0,30.05,WSW,242,10.0,-999.0,57,-99.99,,,0.00,weatherlink.com 1.10,2013-02-06 20:29:00,
2013-02-06 15:44:00,39.2,25.0,30.05,NNW,329,4.0,-999.0,56,-99.99,,,0.00,weatherlink.com 1.10,2013-02-06 20:44:00,
2013-02-06 15:59:00,39.7,23.0,30.07,WNW,298,7.0,-999.0,52,-99.99,,,0.00,weatherlink.com 1.10,2013-02-06 20:59:00,
2013-02-06 16:14:00,38.7,22.0,30.07,NW,317,4.0,-999.0,52,-99.99,,,0.00,weatherlink.com 1.10,2013-02-06 21:14:00,
2013-02-06 16:29:00,38.7,23.0,30.08,West,278,7.0,-999.0,53,-99.99,,,0.00,weatherlink.com 1.10,2013-02-06 21:29:00,
2013-02-06 16:44:00,38.9,22.0,30.09,West,276,1.0,-999.0,51,-99.99,,,0.00,weatherlink.com 1.10,2013-02-06 21:44:00,
2013-02-06 16:59:00,38.7,22.0,30.09,WNW,293,5.0,-999.0,52,-99.99,,,0.00,weatherlink.com 1.10,2013-02-06 21:59:00,
2013-02-06 17:14:00,38.1,22.0,30.09,WNW,290,2.0,-999.0,52,-99.99,,,0.00,weatherlink.com 1.10,2013-02-06 22:14:00,
2013-02-06 17:29:00,37.7,21.0,30.10,WNW,288,4.0,-999.0,52,-99.99,,,0.00,weatherlink.com 1.10,2013-02-06 22:29:00,
2013-02-06 17:44:00,37.3,21.0,30.11,WSW,242,1.0,-999.0,53,-99.99,,,0.00,weatherlink.com 1.10,2013-02-06 22:44:00,
2013-02-06 17:59:00,36.5,22.0,30.12,WSW,242,1.0,-999.0,56,-99.99,,,0.00,weatherlink.com 1.10,2013-02-06 22:59:00,
2013-02-06 18:14:00,36.1,22.0,30.14,West,274,6.0,-999.0,57,-99.99,,,0.00,weatherlink.com 1.10,2013-02-06 23:14:00,
2013-02-06 18:29:00,35.9,22.0,30.15,West,271,2.0,-999.0,58,-99.99,,,0.00,weatherlink.com 1.10,2013-02-06 23:29:00,
2013-02-06 18:44:00,35.7,22.0,30.15,WNW,282,2.0,-999.0,59,-99.99,,,0.00,weatherlink.com 1.10,2013-02-06 23:44:00,
2013-02-06 18:59:00,35.3,23.0,30.16,WSW,240,5.0,-999.0,61,-99.99,,,0.00,weatherlink.com 1.10,2013-02-06 23:59:00,
2013-02-06 19:14:00,35.1,23.0,30.17,WNW,296,2.0,-999.0,62,-99.99,,,0.00,weatherlink.com 1.10,2013-02-07 00:14:00,
2013-02-06 19:29:00,35.0,23.0,30.18,West,277,2.0,-999.0,62,-99.99,,,0.00,weatherlink.com 1.10,2013-02-07 00:29:00,
2013-02-06 19:44:00,34.4,23.0,30.18,West,277,1.0,-999.0,63,-99.99,,,0.00,weatherlink.com 1.10,2013-02-07 00:44:00,
2013-02-06 19:59:00,33.9,23.0,30.18,West,277,2.0,-999.0,64,-99.99,,,0.00,weatherlink.com 1.10,2013-02-07 00:59:00,
2013-02-06 20:14:00,33.4,23.0,30.19,West,277,2.0,-999.0,65,-99.99,,,0.00,weatherlink.com 1.10,2013-02-07 01:14:00,
2013-02-06 20:29:00,33.1,23.0,30.20,West,277,0.0,-999.0,67,-99.99,,,0.00,weatherlink.com 1.10,2013-02-07 01:29:00,
2013-02-06 20:44:00,32.4,22.0,30.20,West,277,1.0,-999.0,66,-99.99,,,0.00,weatherlink.com 1.10,2013-02-07 01:44:00,
2013-02-06 20:59:00,31.9,21.0,30.20,West,277,0.0,-999.0,65,-99.99,,,0.00,weatherlink.com 1.10,2013-02-07 01:59:00,
2013-02-06 21:14:00,32.0,21.0,30.21,West,277,4.0,-999.0,65,-99.99,,,0.00,weatherlink.com 1.10,2013-02-07 02:14:00,
2013-02-06 21:29:00,32.4,19.0,30.21,NW,323,5.0,-999.0,59,-99.99,,,0.00,weatherlink.com 1.10,2013-02-07 02:29:00,
2013-02-06 21:44:00,32.5,19.0,30.22,NW,319,2.0,-999.0,58,-99.99,,,0.00,weatherlink.com 1.10,2013-02-07 02:44:00,
2013-02-06 21:59:00,32.0,19.0,30.23,NW,326,5.0,-999.0,58,-99.99,,,0.00,weatherlink.com 1.10,2013-02-07 02:59:00,
2013-02-06 22:14:00,31.9,18.0,30.23,North,355,2.0,-999.0,58,-99.99,,,0.00,weatherlink.com 1.10,2013-02-07 03:14:00,
2013-02-06 22:29:00,31.9,19.0,30.24,NNW,331,2.0,-999.0,59,-99.99,,,0.00,weatherlink.com 1.10,2013-02-07 03:29:00,
2013-02-06 22:44:00,31.7,17.0,30.24,NW,304,5.0,-999.0,56,-99.99,,,0.00,weatherlink.com 1.10,2013-02-07 03:44:00,
2013-02-06 22:59:00,31.4,17.0,30.25,WNW,300,0.0,-999.0,56,-99.99,,,0.00,weatherlink.com 1.10,2013-02-07 03:59:00,
2013-02-06 23:14:00,31.2,16.0,30.26,NNW,346,5.0,-999.0,54,-99.99,,,0.00,weatherlink.com 1.10,2013-02-07 04:14:00,
2013-02-06 23:29:00,31.0,15.0,30.26,NNW,331,0.0,-999.0,52,-99.99,,,0.00,weatherlink.com 1.10,2013-02-07 04:29:00,
2013-02-06 23:44:00,30.8,14.0,30.26,NNW,340,2.0,-999.0,50,-99.99,,,0.00,weatherlink.com 1.10,2013-02-07 04:44:00,
2013-02-06 23:59:00,30.3,14.0,30.27,NNW,338,0.0,-999.0,50,-99.99,,,0.00,weatherlink.com 1.10,2013-02-07 04:59:00,